Troy, OH

2:55 AM EST en Diciembre 08, 2016 (GMT -0500)
Rural | | Change Station

Alt 854 ft 40.01 °N, 84.21 °W | Updated 15 seconds ago

Nublado
Nublado
28.1 ° F
Sensación térmica 28 ° F
N
1.0
Viento Variable Viento desde Oeste
Gusts 3.0 mph

Hoy
Alta -- | Baja -- ° F
--% Posibilidad de precipitaciones
Ayer
Alta -- | Baja -- ° F
Precip. -- pul
Presión 30.17 pul
Visibilidad 10.0 Millas
Nubes Nublado 8500 ft
Vientos helados 28 ° F
Punto de rocío 21 ° F
Humedad 74%
Precipitaciones 0.00 pul
Espesor de la nieve No disponible.
7:46 AM 5:11 PM
Cuarto creciente, 61% visible
METAR KDAY 080656Z 28014G20KT 10SM OVC085 M02/M07 A3014 RMK AO2 SLP215 T10171067
Presión 30.17 pul
Visibilidad 10.0 Millas
Nubes Nublado 8500 ft
Vientos helados 28 ° F
Punto de rocío 21 ° F
Humedad 74%
Precipitaciones 0.00 pul
Espesor de la nieve No disponible.
7:46 AM 5:11 PM
Cuarto creciente, 61% visible
METAR KDAY 080656Z 28014G20KT 10SM OVC085 M02/M07 A3014 RMK AO2 SLP215 T10171067

10-Day Weather Forecast

Almanac

Astronomía

Dec. 08, 2016 Salida Puesta
Hora real
Crepúsculo civil
Crepúsculo náutico
Crepúsculo astronómico
Luna
Horas de luz
Horas de luz
Tomorrow will be .
, % of the Moon is Illuminated

Extremos de hoy

Máximos del estado Bajos del estado

Community

WunderPhotos

Upload Photos

1,956,259 ¡fotos cargadas!

WunderBlog® & News

Nearby

Calidad del aire

  Calidad del aire Índice AQ Contaminante
Not available.

Grosos de nieve

Estación Profundido Altura

Actividad de terremotos

Ciudad Distance Mag. Tiempo y dato
Magnitud mínima muestra es 2,5.

Temperaturas de aguas costeras

Lugar Temperatura

Stations

Estaciones meteorológicas cercanas

Ubicación de la estación Temp. Vientos helados Punto de rocío Humedad Viento Precip. Alt Actualizado Tipo
                   

Watches & Warnings

There are currently no watches in effect.